Terminal Aerodrome Forecast
Issued by NWS Cleveland, OH

Home | Current Version | Previous Version | Graphics & Text | Print | Product List | Glossary On
Versions: 1 2 3 4 5 6 7 8 9 10 11 12 13 14 15 16 17 18 19 20 21 22 23
000
FTUS41 KCLE 041700
TAFMFD
TAF
KMFD 041730Z 0418/0518 24015G25KT P6SM SCT050 OVC100
     FM042030 22015G25KT 6SM -SHRA BR OVC050
      TEMPO 0421/0423 4SM -SHRA BR OVC035
     FM042300 22006KT P6SM VCSH BKN045 BKN080
     FM050600 24005KT 6SM -SHRA BR SCT025 OVC045
      TEMPO 0506/0508 4SM -SHRA BR OVC025
     FM050800 31004KT 5SM -SHRA BR OVC025
     FM051200 36006KT 4SM -SHRA BR OVC010=

USA.gov is the U.S. government's official web portal to all federal, state and local government web resources and services.